Dillon, CO

6:22 PM MST on March 04, 2015 (GMT -0700)
RAWS SODA CREEK CO US | Change Station
CLOSE
Current Station
Personal Weather Station
Location: Dillon, CO
Elevation: 9578 ft
Nearby Weather Stations

Elev 9578 ft 39.56 °N, 105.99 °W | Updated 26 minutes ago

Mostly Cloudy
Mostly Cloudy
6 °F
Feels Like -7 °F
N
8
Wind Variable Wind from WNW
Gusts 18.0 mph

Today
High -- | Low -- °F
--% Chance of Precip.
Yesterday
High -- | Low -- °F
Precip. -- in
6:32 AM 5:59 PM
Full, 100% visible
Pressure 29.98 in
Visibility 8.0 miles
Clouds Overcast 2900 ft
Windchill -7 °F
Dew Point -8 °F
Humidity 51%
Rainfall 0.01 in
Snow Depth Not available.
UV 0 out of 12
Pollen .80 out of 12
Air Quality Not available.
Flu Activity Not available.
SPECI KLXV 050115Z AUTO 34007G15KT 8SM OVC029 M14/M21 A2998 RMK AO2 T11441206

More Conditions Fewer Conditions

Pressure 29.98 in
Visibility 8.0 miles
Clouds Overcast 2900 ft
Windchill -7 °F
Dew Point -8 °F
Humidity 51%
Rainfall 0.01 in
Snow Depth Not available.
UV 0 out of 12
Pollen .80 out of 12
Air Quality Not available.
Flu Activity Not available.
SPECI KLXV 050115Z AUTO 34007G15KT 8SM OVC029 M14/M21 A2998 RMK AO2 T11441206

More Conditions Fewer Conditions

10-Day Weather Forecast

Almanac

Astronomy

Mar. 04, 2015 Rise Set
Actual Time
Civil Twilight
Nautical Twilight
Astronomical Twilight
Moon
Length of Visible Light
Length of Day
Tomorrow will be .
, % of the Moon is Illuminated

Today's Extremes

State Highs State Lows

Community

WunderPhotos

Upload Photos

1,802,617 photos uploaded!

WunderBlogs® & News

Nearby

Air Quality

  Air Quality AQ Index Pollutant
Not available.

Snow Depth

Station Depth Elevation

Earthquake Activity

City Distance Mag. Time & Date
Minimum magnitude displayed is 2.5.

Coastal Water Temperatures

Place Temperature

Nearby Weather Stations